createdAt,value
2022-08-29T00:01:03.904Z,98474.16
2022-08-29T00:03:32.357Z,98466.44
2022-08-29T00:06:02.740Z,98469.66
2022-08-29T00:08:31.382Z,98465.16
2022-08-29T00:10:58.291Z,98473.47
2022-08-29T00:13:25.258Z,98475.84
2022-08-29T00:15:51.789Z,98466.16
2022-08-29T00:18:20.510Z,98468.81
2022-08-29T00:20:47.445Z,98468.81
2022-08-29T00:23:14.091Z,98468.81
2022-08-29T00:25:40.688Z,98474.16
2022-08-29T00:28:07.638Z,98476.84
2022-08-29T00:30:35.291Z,98459.91
2022-08-29T00:33:02.207Z,98471.50
2022-08-29T00:35:32.392Z,98468.00
2022-08-29T00:38:00.560Z,98462.78
2022-08-29T00:40:35.388Z,98467.13
2022-08-29T00:43:02.268Z,98462.66
2022-08-29T00:45:29.385Z,98470.66
2022-08-29T00:48:00.744Z,98465.31
2022-08-29T00:50:38.652Z,98463.47
2022-08-29T00:53:08.804Z,98459.13
2022-08-29T00:55:37.370Z,98466.31
2022-08-29T00:58:28.354Z,98468.97
2022-08-29T01:00:55.347Z,98461.78
2022-08-29T01:03:21.999Z,98468.13
2022-08-29T01:05:48.975Z,98470.78
2022-08-29T01:11:04.975Z,98467.47
2022-08-29T01:13:36.281Z,98474.44
2022-08-29T01:16:05.359Z,98474.63
2022-08-29T01:23:17.891Z,98470.13
2022-08-29T01:25:48.519Z,98479.13
2022-08-29T01:28:32.175Z,98455.84
2022-08-29T01:31:06.596Z,98469.28
2022-08-29T01:35:58.052Z,98459.56
2022-08-29T01:38:30.368Z,98467.59
2022-08-29T01:40:59.327Z,98468.44
2022-08-29T01:45:50.589Z,98470.25
2022-08-29T01:48:18.613Z,98468.91
2022-08-29T01:50:46.511Z,98481.94
2022-08-29T01:53:13.880Z,98474.78
2022-08-29T01:55:40.971Z,98484.47
2022-08-29T01:58:09.084Z,98478.28
2022-08-29T02:00:36.016Z,98488.97
2022-08-29T02:03:03.411Z,98487.16
2022-08-29T02:05:31.232Z,98478.22
2022-08-29T02:07:58.140Z,98481.81
2022-08-29T02:10:25.044Z,98484.47
2022-08-29T02:12:53.729Z,98489.81
2022-08-29T02:15:21.520Z,98489.94
2022-08-29T02:17:48.666Z,98487.16
2022-08-29T02:20:16.228Z,98484.47
2022-08-29T02:22:42.920Z,98493.47
2022-08-29T02:25:30.151Z,98487.28
2022-08-29T02:27:57.633Z,98490.97
2022-08-29T02:30:25.575Z,98489.94
2022-08-29T02:32:52.919Z,98491.78
2022-08-29T02:35:19.810Z,98485.63
2022-08-29T02:37:47.593Z,98493.63
2022-08-29T02:40:14.325Z,98488.28
2022-08-29T02:42:40.980Z,98485.63
2022-08-29T02:45:08.439Z,98485.75
2022-08-29T02:47:38.495Z,98495.59
2022-08-29T02:50:06.773Z,98499.09
2022-08-29T02:52:37.106Z,98504.31
2022-08-29T02:55:04.476Z,98492.78
2022-08-29T02:57:31.012Z,98496.44
2022-08-29T02:59:57.598Z,98493.75
2022-08-29T03:02:24.328Z,98498.28
2022-08-29T03:04:51.051Z,98497.28
2022-08-29T03:07:17.865Z,98502.63
2022-08-29T03:09:44.826Z,98504.44
2022-08-29T03:12:11.380Z,98500.94
2022-08-29T03:14:38.061Z,98496.22
2022-08-29T03:17:05.014Z,98505.47
2022-08-29T03:19:31.666Z,98508.97
2022-08-29T03:22:04.131Z,98505.59
2022-08-29T03:24:30.808Z,98508.97
2022-08-29T03:26:58.913Z,98506.22
2022-08-29T03:29:26.094Z,98517.97
2022-08-29T03:31:53.783Z,98507.19
2022-08-29T03:34:20.520Z,98515.28
2022-08-29T03:36:47.099Z,98514.47
2022-08-29T03:39:13.660Z,98517.97
2022-08-29T03:41:40.507Z,98514.47
2022-08-29T03:44:07.125Z,98518.94
2022-08-29T03:46:35.966Z,98522.47
2022-08-29T03:49:02.609Z,98523.31
2022-08-29T03:51:31.509Z,98524.28
2022-08-29T03:53:58.409Z,98530.50
2022-08-29T03:56:26.250Z,98522.59
2022-08-29T03:58:53.576Z,98538.63
2022-08-29T04:01:24.371Z,98528.97
2022-08-29T04:03:51.371Z,98545.81
2022-08-29T04:08:34.185Z,98549.31
2022-08-29T04:11:00.788Z,98550.34
2022-08-29T04:13:27.343Z,98554.00
2022-08-29T04:15:53.966Z,98556.66
2022-08-29T04:18:21.627Z,98428.44
2022-08-29T04:20:49.255Z,98567.34
2022-08-29T04:23:15.988Z,98544.34
2022-08-29T04:25:43.791Z,98571.00
2022-08-29T04:28:12.754Z,98568.50
2022-08-29T04:30:40.174Z,98565.66
2022-08-29T04:33:08.095Z,98574.66
2022-08-29T04:35:40.753Z,98575.50
2022-08-29T04:38:08.468Z,98580.84
2022-08-29T04:40:37.543Z,98580.00
2022-08-29T04:43:04.251Z,98584.50
2022-08-29T04:45:30.940Z,98589.84
2022-08-29T04:48:00.705Z,98588.00
2022-08-29T04:50:30.277Z,98596.03
2022-08-29T04:52:56.913Z,98588.00
2022-08-29T04:55:25.738Z,98590.69
2022-08-29T04:57:56.295Z,98600.53
2022-08-29T05:00:26.553Z,98599.69
2022-08-29T05:02:53.141Z,98612.03
2022-08-29T05:05:19.847Z,98616.69
2022-08-29T05:07:46.499Z,98622.88
2022-08-29T05:10:18.976Z,98622.88
2022-08-29T05:12:46.417Z,98625.00
2022-08-29T05:15:14.494Z,98634.38
2022-08-29T05:17:41.567Z,98630.91
2022-08-29T05:20:08.690Z,98631.72
2022-08-29T05:22:37.743Z,98632.72
2022-08-29T05:27:22.285Z,98633.56
2022-08-29T05:29:51.398Z,98639.72
2022-08-29T05:32:21.409Z,98634.53
2022-08-29T05:34:49.728Z,98636.41
2022-08-29T05:37:19.699Z,98645.22
2022-08-29T05:39:47.250Z,98642.16
2022-08-29T05:42:16.357Z,98651.72
2022-08-29T05:44:42.989Z,98656.06
2022-08-29T05:47:12.316Z,98656.19
2022-08-29T05:49:41.284Z,98654.38
2022-08-29T05:52:08.913Z,98652.53
2022-08-29T05:54:38.541Z,98663.22
2022-08-29T05:59:18.703Z,98656.91
2022-08-29T06:04:14.075Z,98669.44
2022-08-29T06:06:41.752Z,98660.00
2022-08-29T06:09:09.260Z,98666.75
2022-08-29T06:11:35.833Z,98667.72
2022-08-29T06:14:02.583Z,98668.44
2022-08-29T06:16:30.264Z,98674.88
2022-08-29T06:18:57.234Z,98662.41
2022-08-29T06:21:24.106Z,98659.78
2022-08-29T06:23:51.280Z,98675.59
2022-08-29T06:26:19.616Z,98673.06
2022-08-29T06:28:46.755Z,98683.59
2022-08-29T06:31:13.359Z,98689.09
2022-08-29T06:33:40.212Z,98689.94
2022-08-29T06:36:08.661Z,98697.13
2022-08-29T06:40:57.472Z,98704.97
2022-08-29T06:43:26.490Z,98703.16
2022-08-29T06:45:53.109Z,98712.81
2022-08-29T06:48:20.580Z,98701.16
2022-08-29T06:50:47.260Z,98709.03
2022-08-29T06:53:26.925Z,98711.72
2022-08-29T06:55:55.603Z,98717.88
2022-08-29T07:00:49.047Z,98724.91
2022-08-29T07:03:16.876Z,98725.75
2022-08-29T07:05:43.620Z,98728.41
2022-08-29T07:08:10.213Z,98724.75
2022-08-29T07:10:36.876Z,98728.25
2022-08-29T07:13:03.689Z,98729.13
2022-08-29T07:15:30.262Z,98734.47
2022-08-29T07:18:00.008Z,98736.16
2022-08-29T07:20:26.865Z,98745.00
2022-08-29T07:22:53.389Z,98741.34
2022-08-29T07:25:21.040Z,98739.50
2022-08-29T07:27:52.036Z,98738.66
2022-08-29T07:30:20.739Z,98750.06
2022-08-29T07:32:47.472Z,98742.16
2022-08-29T07:35:19.831Z,98743.84
2022-08-29T07:37:57.700Z,98744.84
2022-08-29T07:40:26.434Z,98751.88
2022-08-29T07:42:53.375Z,98750.88
2022-08-29T07:45:20.157Z,98750.88
2022-08-29T07:47:46.848Z,98713.00
2022-08-29T07:50:14.828Z,98749.91
2022-08-29T07:52:41.481Z,98752.56
2022-08-29T07:55:08.804Z,98753.41
2022-08-29T07:57:39.607Z,98742.47
2022-08-29T08:00:10.731Z,98755.41
2022-08-29T08:02:39.037Z,98749.03
2022-08-29T08:05:07.024Z,98757.22
2022-08-29T08:07:35.232Z,98753.72
2022-08-29T08:10:03.614Z,98765.78
2022-08-29T08:12:30.582Z,98772.81
2022-08-29T08:14:57.920Z,98771.97
2022-08-29T08:17:27.039Z,98771.28
2022-08-29T08:19:53.600Z,98773.63
2022-08-29T08:22:20.265Z,98774.50
2022-08-29T08:24:48.461Z,98765.78
2022-08-29T08:27:15.035Z,98756.97
2022-08-29T08:29:43.844Z,98778.00
2022-08-29T08:32:10.420Z,98786.88
2022-08-29T08:34:36.968Z,98776.19
2022-08-29T08:37:07.942Z,98779.69
2022-08-29T08:42:22.966Z,98781.53
2022-08-29T08:45:13.251Z,98769.84
2022-08-29T08:47:45.319Z,98779.69
2022-08-29T08:50:18.592Z,98778.69
2022-08-29T08:52:58.866Z,98774.34
2022-08-29T08:55:28.363Z,98779.69
2022-08-29T08:58:06.722Z,98776.84
2022-08-29T09:00:43.121Z,98770.69
2022-08-29T09:03:34.654Z,98775.03
2022-08-29T09:06:22.400Z,98774.19
2022-08-29T09:09:14.425Z,98783.88
2022-08-29T09:11:54.622Z,98788.41
2022-08-29T09:14:29.780Z,98783.88
2022-08-29T09:17:00.350Z,98781.22
2022-08-29T09:19:27.000Z,98782.06
2022-08-29T09:21:59.547Z,98785.56
2022-08-29T09:24:50.353Z,98774.06
2022-08-29T09:27:19.555Z,98774.06
2022-08-29T09:32:20.314Z,98779.25
2022-08-29T09:37:36.113Z,98778.38
2022-08-29T09:40:03.049Z,98784.59
2022-08-29T09:42:36.459Z,98772.91
2022-08-29T09:45:20.129Z,98780.06
2022-08-29T09:47:46.761Z,98773.03
2022-08-29T09:50:26.089Z,98774.72
2022-08-29T09:52:58.534Z,98771.22
2022-08-29T09:55:32.691Z,98767.56
2022-08-29T09:58:10.257Z,98764.91
2022-08-29T10:00:39.857Z,98773.75
2022-08-29T10:03:10.712Z,98776.41
2022-08-29T10:05:46.872Z,98776.41
2022-08-29T10:08:37.872Z,98773.75
2022-08-29T10:11:21.904Z,98772.75
2022-08-29T10:13:56.088Z,98777.28
2022-08-29T10:16:38.202Z,98776.41
2022-08-29T10:19:11.873Z,98771.06
2022-08-29T10:22:13.919Z,98770.09
2022-08-29T10:24:54.356Z,98764.75
2022-08-29T10:27:32.569Z,98774.59
2022-08-29T10:30:08.167Z,98770.09
2022-08-29T10:32:43.927Z,98762.06
2022-08-29T10:35:29.752Z,98765.72
2022-08-29T10:38:15.639Z,98762.06
2022-08-29T10:40:47.699Z,98757.56
2022-08-29T10:43:23.144Z,98760.22
2022-08-29T10:46:27.385Z,98765.56
2022-08-29T10:49:06.683Z,98762.91
2022-08-29T10:51:54.365Z,98762.06
2022-08-29T10:54:35.740Z,98770.09
2022-08-29T10:57:04.635Z,98770.91
2022-08-29T11:00:04.802Z,98770.91
2022-08-29T11:02:39.514Z,98765.72
2022-08-29T11:05:15.192Z,98772.59
2022-08-29T11:07:56.123Z,98775.28
2022-08-29T11:10:27.329Z,98771.78
2022-08-29T11:13:18.223Z,98764.59
2022-08-29T11:15:55.643Z,98770.78
2022-08-29T11:18:46.373Z,98767.09
2022-08-29T11:21:29.383Z,98774.28
2022-08-29T11:23:58.379Z,98770.78
2022-08-29T11:26:33.728Z,98770.66
2022-08-29T11:29:37.004Z,98753.75
2022-08-29T11:32:09.675Z,98761.75
2022-08-29T11:35:09.487Z,98759.09
2022-08-29T11:37:48.212Z,98761.75
2022-08-29T11:40:17.753Z,98763.47
2022-08-29T11:42:52.072Z,98768.78
2022-08-29T11:45:35.463Z,98760.78
2022-08-29T11:48:31.299Z,98767.97
2022-08-29T11:50:59.298Z,98753.91
2022-08-29T11:56:12.184Z,98757.13
2022-08-29T11:58:42.885Z,98758.81
2022-08-29T12:01:35.328Z,98751.06
2022-08-29T12:04:06.968Z,98749.28
2022-08-29T12:06:39.793Z,98757.13
2022-08-29T12:09:13.906Z,98754.31
2022-08-29T12:11:59.329Z,98759.81
2022-08-29T12:14:37.896Z,98759.81
2022-08-29T12:17:51.142Z,98752.66
2022-08-29T12:20:31.665Z,98758.81
2022-08-29T12:23:03.996Z,98755.31
2022-08-29T12:25:33.788Z,98764.16
2022-08-29T12:28:06.028Z,98758.81
2022-08-29T12:30:44.322Z,98756.97
2022-08-29T12:33:53.963Z,98760.50
2022-08-29T12:36:52.169Z,98754.31
2022-08-29T12:39:27.846Z,98745.44
2022-08-29T12:42:27.253Z,98742.78
2022-08-29T12:45:19.084Z,98739.72
2022-08-29T12:47:50.888Z,98742.78
2022-08-29T12:50:32.662Z,98740.13
2022-08-29T12:53:07.574Z,98736.47
2022-08-29T12:55:42.071Z,98751.63
2022-08-29T12:58:10.522Z,98747.16
2022-08-29T13:00:37.306Z,98749.81
2022-08-29T13:03:14.849Z,98739.97
2022-08-29T13:05:42.548Z,98746.16
2022-08-29T13:08:26.370Z,98746.16
2022-08-29T13:10:57.332Z,98740.81
2022-08-29T13:13:27.877Z,98741.63
2022-08-29T13:15:57.554Z,98738.13
2022-08-29T13:18:24.569Z,98745.19
2022-08-29T13:21:19.103Z,98736.31
2022-08-29T13:23:57.712Z,98736.31
2022-08-29T13:26:29.003Z,98732.81
2022-08-29T13:29:11.073Z,98738.97
2022-08-29T13:31:39.597Z,98737.16
2022-08-29T13:34:14.042Z,98742.50
2022-08-29T13:36:46.840Z,98737.16
2022-08-29T13:39:19.214Z,98728.28
2022-08-29T13:44:48.825Z,98733.63
2022-08-29T13:47:25.332Z,98730.13
2022-08-29T13:49:58.032Z,98722.94
2022-08-29T13:52:31.369Z,98724.78
2022-08-29T13:54:59.442Z,98727.56
2022-08-29T13:57:29.290Z,98730.13
2022-08-29T13:59:57.794Z,98726.47
2022-08-29T14:02:25.194Z,98713.84
2022-08-29T14:04:52.072Z,98720.09
2022-08-29T14:07:25.544Z,98719.28
2022-08-29T14:09:52.560Z,98721.41
2022-08-29T14:12:19.467Z,98712.16
2022-08-29T14:14:48.249Z,98726.31
2022-08-29T14:17:18.498Z,98729.97
2022-08-29T14:19:47.068Z,98732.47
2022-08-29T14:22:14.421Z,98733.34
2022-08-29T14:24:41.781Z,98737.00
2022-08-29T14:27:09.258Z,98737.00
2022-08-29T14:29:36.063Z,98742.34
2022-08-29T14:32:03.525Z,98737.81
2022-08-29T14:34:32.407Z,98741.47
2022-08-29T14:36:59.650Z,98741.38
2022-08-29T14:39:26.612Z,98738.81
2022-08-29T14:41:54.521Z,98741.38
2022-08-29T14:44:22.137Z,98738.69
2022-08-29T14:46:49.250Z,98739.50
2022-08-29T14:49:16.048Z,98729.81
2022-08-29T14:51:44.238Z,98736.00
2022-08-29T14:54:11.423Z,98728.81
2022-08-29T14:56:51.664Z,98725.31
2022-08-29T14:59:19.650Z,98728.00
2022-08-29T15:01:52.651Z,98723.47
2022-08-29T15:04:35.037Z,98732.47
2022-08-29T15:07:08.350Z,98732.47
2022-08-29T15:09:35.156Z,98723.09
2022-08-29T15:14:27.578Z,98723.78
2022-08-29T15:16:54.252Z,98725.59
2022-08-29T15:22:09.267Z,98723.91
2022-08-29T15:24:36.300Z,98723.09
2022-08-29T15:27:03.992Z,98720.59
2022-08-29T15:29:30.940Z,98711.84
2022-08-29T15:31:57.617Z,98712.69
2022-08-29T15:34:25.764Z,98718.03
2022-08-29T15:36:54.151Z,98712.03
2022-08-29T15:39:21.569Z,98708.31
2022-08-29T15:44:04.420Z,98713.84
2022-08-29T15:46:31.035Z,98713.00
2022-08-29T15:48:57.652Z,98714.00
2022-08-29T15:51:27.409Z,98705.28
2022-08-29T15:53:53.972Z,98712.31
2022-08-29T15:56:20.631Z,98716.81
2022-08-29T15:58:48.275Z,98714.16
2022-08-29T16:01:15.916Z,98709.78
2022-08-29T16:03:43.419Z,98709.94
2022-08-29T16:06:10.874Z,98717.97
2022-08-29T16:08:37.706Z,98694.09
2022-08-29T16:11:12.676Z,98709.09
2022-08-29T16:13:39.229Z,98686.53
2022-08-29T16:16:06.740Z,98709.09
2022-08-29T16:18:33.348Z,98706.41
2022-08-29T16:21:00.142Z,98705.59
2022-08-29T16:23:26.797Z,98705.59
2022-08-29T16:25:53.482Z,98703.91
2022-08-29T16:28:20.034Z,98705.75
2022-08-29T16:30:49.568Z,98698.72
2022-08-29T16:35:30.706Z,98704.19
2022-08-29T16:38:02.817Z,98701.50
2022-08-29T16:40:31.432Z,98699.84
2022-08-29T16:42:58.121Z,98695.63
2022-08-29T16:45:24.862Z,98700.97
2022-08-29T16:47:56.741Z,98700.97
2022-08-29T16:50:27.073Z,98687.38
2022-08-29T16:52:54.207Z,98702.81
2022-08-29T16:55:21.224Z,98695.94
2022-08-29T16:58:07.910Z,98702.97
2022-08-29T17:00:35.096Z,98702.09
2022-08-29T17:05:33.717Z,98709.44
2022-08-29T17:08:00.325Z,98712.22
2022-08-29T17:10:26.908Z,98712.22
2022-08-29T17:12:53.704Z,98710.56
2022-08-29T17:15:20.297Z,98719.41
2022-08-29T17:17:47.488Z,98719.41
2022-08-29T17:20:14.988Z,98724.59
2022-08-29T17:22:41.587Z,98733.47
2022-08-29T17:25:08.578Z,98732.50
2022-08-29T17:27:35.176Z,98730.66
2022-08-29T17:30:03.585Z,98733.31
2022-08-29T17:32:30.228Z,98730.50
2022-08-29T17:34:56.896Z,98721.38
2022-08-29T17:37:23.499Z,98738.50
2022-08-29T17:39:50.041Z,98743.03
2022-08-29T17:42:16.629Z,98748.53
2022-08-29T17:44:45.479Z,98743.47
2022-08-29T17:47:12.310Z,98742.19
2022-08-29T17:49:39.535Z,98746.31
2022-08-29T17:52:06.125Z,98748.13
2022-08-29T17:54:32.737Z,98754.47
2022-08-29T17:57:00.882Z,98763.31
2022-08-29T17:59:31.371Z,98765.00
2022-08-29T18:01:58.761Z,98759.38
2022-08-29T18:04:26.891Z,98728.78
2022-08-29T18:06:55.243Z,98769.06
2022-08-29T18:09:22.893Z,98769.91
2022-08-29T18:11:51.523Z,98774.41
2022-08-29T18:14:20.484Z,98784.81
2022-08-29T18:16:47.310Z,98781.16
2022-08-29T18:19:14.213Z,98782.81
2022-08-29T18:21:43.279Z,98780.13
2022-08-29T18:24:13.815Z,98782.81
2022-08-29T18:26:46.060Z,98792.50
2022-08-29T18:29:13.688Z,98796.03
2022-08-29T18:34:11.431Z,98796.88
2022-08-29T18:36:41.165Z,98793.38
2022-08-29T18:39:11.691Z,98801.38
2022-08-29T18:41:38.723Z,98798.84
2022-08-29T18:44:05.819Z,98800.53
2022-08-29T18:46:33.347Z,98805.03
2022-08-29T18:49:00.071Z,98799.69
2022-08-29T18:51:27.603Z,98804.50
2022-08-29T18:53:54.747Z,98793.28
2022-08-29T18:56:21.453Z,98805.25
2022-08-29T18:58:47.992Z,98810.44
2022-08-29T19:01:27.871Z,98811.16
2022-08-29T19:04:00.818Z,98818.53
2022-08-29T19:06:27.781Z,98820.19
2022-08-29T19:08:56.432Z,98828.56
2022-08-29T19:11:25.329Z,98829.81
2022-08-29T19:13:54.538Z,98827.06
2022-08-29T19:16:21.987Z,98830.53
2022-08-29T19:18:48.867Z,98833.03
2022-08-29T19:21:15.494Z,98839.03
2022-08-29T19:23:45.426Z,98835.19
2022-08-29T19:26:17.181Z,98846.50
2022-08-29T19:28:47.214Z,98844.53
2022-08-29T19:31:15.673Z,98840.97
2022-08-29T19:33:44.087Z,98853.41
2022-08-29T19:36:10.881Z,98858.28
2022-08-29T19:38:38.724Z,98853.47
2022-08-29T19:41:09.582Z,98850.59
2022-08-29T19:43:36.868Z,98852.94
2022-08-29T19:46:11.002Z,98850.81
2022-08-29T19:48:41.566Z,98851.19
2022-08-29T19:51:10.225Z,98855.91
2022-08-29T19:53:42.707Z,98854.34
2022-08-29T19:56:12.382Z,98860.06
2022-08-29T19:58:40.232Z,98854.50
2022-08-29T20:01:09.225Z,98853.22
2022-08-29T20:03:41.254Z,98864.56
2022-08-29T20:06:08.668Z,98869.03
2022-08-29T20:08:46.946Z,98867.81
2022-08-29T20:11:19.028Z,98866.22
2022-08-29T20:13:50.511Z,98859.28
2022-08-29T20:16:18.820Z,98862.03
2022-08-29T20:18:46.382Z,98865.59
2022-08-29T20:21:16.366Z,98865.81
2022-08-29T20:23:49.660Z,98865.19
2022-08-29T20:26:17.402Z,98870.94
2022-08-29T20:28:44.080Z,98875.75
2022-08-29T20:31:11.020Z,98878.75
2022-08-29T20:33:41.266Z,98877.50
2022-08-29T20:36:27.329Z,98885.25
2022-08-29T20:38:54.316Z,98882.28
2022-08-29T20:41:21.723Z,98888.22
2022-08-29T20:43:48.649Z,98882.59
2022-08-29T20:46:15.373Z,98874.38
2022-08-29T20:48:42.229Z,98879.53
2022-08-29T20:51:10.127Z,98877.59
2022-08-29T20:53:38.156Z,98874.94
2022-08-29T20:56:05.527Z,98877.75
2022-08-29T20:58:32.842Z,98879.88
2022-08-29T21:01:00.766Z,98882.41
2022-08-29T21:03:46.267Z,98870.78
2022-08-29T21:06:12.867Z,98874.13
2022-08-29T21:08:40.993Z,98876.78
2022-08-29T21:11:07.832Z,98867.81
2022-08-29T21:13:34.442Z,98866.03
2022-08-29T21:16:07.449Z,98875.72
2022-08-29T21:18:34.521Z,98871.34
2022-08-29T21:21:01.373Z,98874.72
2022-08-29T21:23:28.216Z,98879.06
2022-08-29T21:25:57.784Z,98880.75
2022-08-29T21:30:47.421Z,98877.94
2022-08-29T21:33:14.016Z,98880.63
2022-08-29T21:35:41.072Z,98877.25
2022-08-29T21:38:08.525Z,98878.66
2022-08-29T21:40:35.778Z,98883.03
2022-08-29T21:43:10.601Z,98886.53
2022-08-29T21:45:40.413Z,98891.84
2022-08-29T21:48:07.102Z,98886.53
2022-08-29T21:50:33.805Z,98888.25
2022-08-29T21:53:00.489Z,98894.44
2022-08-29T21:55:27.081Z,98890.78
2022-08-29T21:57:58.247Z,98890.78
2022-08-29T22:00:32.590Z,98895.28
2022-08-29T22:03:01.436Z,98895.13
2022-08-29T22:05:28.660Z,98895.13
2022-08-29T22:07:58.365Z,98881.34
2022-08-29T22:10:28.937Z,98884.31
2022-08-29T22:12:55.596Z,98891.50
2022-08-29T22:15:41.140Z,98900.31
2022-08-29T22:18:09.090Z,98886.81
2022-08-29T22:20:37.595Z,98887.63
2022-08-29T22:23:06.660Z,98898.66
2022-08-29T22:25:33.737Z,98886.16
2022-08-29T22:28:00.795Z,98887.84
2022-08-29T22:30:28.880Z,98898.50
2022-08-29T22:33:00.088Z,98899.34
2022-08-29T22:35:27.928Z,98888.09
2022-08-29T22:37:54.859Z,98902.00
2022-08-29T22:40:21.565Z,98896.69
2022-08-29T22:42:48.300Z,98894.00
2022-08-29T22:45:16.413Z,98894.88
2022-08-29T22:47:44.363Z,98897.53
2022-08-29T22:50:14.943Z,98837.22
2022-08-29T22:52:41.688Z,98884.22
2022-08-29T22:55:11.568Z,98886.88
2022-08-29T22:57:38.405Z,98888.69
2022-08-29T23:00:07.346Z,98893.03
2022-08-29T23:02:34.090Z,98885.19
2022-08-29T23:05:00.740Z,98884.31
2022-08-29T23:07:27.360Z,98900.19
2022-08-29T23:09:53.936Z,98901.19
2022-08-29T23:12:20.527Z,98896.81
2022-08-29T23:14:47.376Z,98892.31
2022-08-29T23:17:15.235Z,98893.19
2022-08-29T23:19:41.883Z,98895.00
2022-08-29T23:22:10.980Z,98884.31
2022-08-29T23:24:39.271Z,98887.00
2022-08-29T23:27:07.960Z,98890.53
2022-08-29T23:29:36.509Z,98888.81
2022-08-29T23:32:08.856Z,98891.50
2022-08-29T23:34:35.432Z,98883.78
2022-08-29T23:37:02.125Z,98888.00
2022-08-29T23:39:28.735Z,98894.16
2022-08-29T23:41:55.717Z,98887.13
2022-08-29T23:44:22.304Z,98891.63
2022-08-29T23:46:48.942Z,98897.78
2022-08-29T23:49:15.481Z,98891.63
2022-08-29T23:51:42.235Z,98885.94
2022-08-29T23:54:08.818Z,98894.44
2022-08-29T23:56:35.491Z,98901.44
2022-08-29T23:59:02.020Z,98900.47
